Time;durP1;ratioP1;P1;durP2;ratioP2;P2;SDS_P1;SDS_P2;PMS_P1;PMS_P2;Temp;Humidity;BMP_temperature;BMP_pressure;BME280_temperature;BME280_humidity;BME280_pressure;Samples;Min_cycle;Max_cycle;Signal;HPM_P1;HPM_P2
2021/03/18 00:01:37;;;;;;;4.22;1.15;;;14.00;52.10;;;;;;4875633;29;20037;-76
2021/03/18 00:04:05;;;;;;;6.00;1.75;;;14.00;52.10;;;;;;4864276;29;20107;-80
2021/03/18 00:06:31;;;;;;;6.57;1.30;;;14.00;52.10;;;;;;4862971;29;20057;-77
2021/03/18 00:08:57;;;;;;;4.93;1.45;;;14.00;51.90;;;;;;4863854;29;20056;-76
2021/03/18 00:11:23;;;;;;;4.63;1.33;;;14.00;52.00;;;;;;4866203;29;20045;-76
2021/03/18 00:13:49;;;;;;;4.22;0.90;;;14.00;51.90;;;;;;4881722;29;20116;-77
2021/03/18 00:16:15;;;;;;;3.75;1.05;;;13.90;51.80;;;;;;4882151;29;20075;-77
2021/03/18 00:18:53;;;;;;;5.60;1.17;;;13.90;51.80;;;;;;4880024;29;20049;-75
2021/03/18 00:21:20;;;;;;;4.72;1.10;;;13.90;52.00;;;;;;4880537;29;20049;-76
2021/03/18 00:23:47;;;;;;;4.63;1.20;;;13.90;52.00;;;;;;4862946;29;20049;-77
2021/03/18 00:26:13;;;;;;;6.60;1.40;;;13.90;52.10;;;;;;4863334;29;20053;-77
2021/03/18 00:28:39;;;;;;;4.18;1.00;;;13.90;52.10;;;;;;4864199;29;20059;-76
2021/03/18 00:31:06;;;;;;;3.92;1.20;;;13.90;52.10;;;;;;4863163;29;20178;-77
2021/03/18 00:33:32;;;;;;;5.18;1.55;;;13.90;52.20;;;;;;4880727;29;20412;-77
2021/03/18 00:35:58;;;;;;;6.07;1.00;;;13.90;52.20;;;;;;4881853;29;20105;-75
2021/03/18 00:38:26;;;;;;;4.63;1.42;;;13.80;52.10;;;;;;4872804;29;20042;-76
2021/03/18 00:40:56;;;;;;;6.05;1.05;;;13.80;52.10;;;;;;4863103;29;20128;-76
2021/03/18 00:43:23;;;;;;;5.65;1.23;;;13.80;52.10;;;;;;4879229;29;20112;-77
2021/03/18 00:45:50;;;;;;;4.20;1.40;;;13.80;52.10;;;;;;4863076;29;20045;-78
2021/03/18 00:48:20;;;;;;;4.70;0.85;;;13.80;52.10;;;;;;4874066;29;20053;-75
2021/03/18 00:50:56;;;;;;;6.13;1.52;;;13.80;52.20;;;;;;4861491;29;20069;-75
2021/03/18 00:53:24;;;;;;;3.97;0.70;;;13.80;52.40;;;;;;4878697;29;20041;-76
2021/03/18 00:55:51;;;;;;;5.57;0.93;;;13.70;53.00;;;;;;4881181;29;20127;-77
2021/03/18 00:58:19;;;;;;;3.40;0.88;;;13.70;52.40;;;;;;4874434;29;20069;-75
2021/03/18 01:00:47;;;;;;;5.90;1.48;;;13.70;52.40;;;;;;4862058;29;20053;-75
2021/03/18 01:03:14;;;;;;;7.65;1.42;;;13.70;52.40;;;;;;4862465;29;20457;-76
2021/03/18 01:06:00;;;;;;;5.78;1.00;;;13.70;52.50;;;;;;4862685;29;20053;-80
2021/03/18 01:08:28;;;;;;;8.50;1.55;;;13.70;52.60;;;;;;4868616;29;20037;-75
2021/03/18 01:11:05;;;;;;;3.20;0.98;;;13.70;52.70;;;;;;4881293;29;20052;-78
2021/03/18 01:13:31;;;;;;;4.80;0.98;;;13.70;52.70;;;;;;4879204;29;20073;-77
2021/03/18 01:16:05;;;;;;;7.10;0.93;;;13.70;52.70;;;;;;4871321;29;20070;-78
2021/03/18 01:18:42;;;;;;;5.18;0.60;;;13.70;52.80;;;;;;4865162;29;20042;-80
2021/03/18 01:21:09;;;;;;;4.00;0.77;;;13.70;52.80;;;;;;4863662;29;20427;-75
2021/03/18 01:23:35;;;;;;;5.20;0.88;;;13.70;52.90;;;;;;4862220;29;20042;-77
2021/03/18 01:26:02;;;;;;;4.03;0.88;;;13.70;53.00;;;;;;4862881;29;20144;-78
2021/03/18 01:28:29;;;;;;;2.58;0.75;;;13.70;53.00;;;;;;4864830;29;20049;-76
2021/03/18 01:30:55;;;;;;;5.75;1.05;;;13.60;53.00;;;;;;4862500;29;20053;-78
2021/03/18 01:33:21;;;;;;;5.15;0.85;;;13.60;53.10;;;;;;4862582;29;20124;-76
2021/03/18 01:35:48;;;;;;;4.20;0.73;;;13.60;53.20;;;;;;4862167;29;20073;-77
2021/03/18 01:38:14;;;;;;;4.15;0.80;;;13.60;53.30;;;;;;4864888;29;20446;-76
2021/03/18 01:40:40;;;;;;;6.72;0.90;;;13.70;53.40;;;;;;4862223;29;20057;-75
2021/03/18 01:43:06;;;;;;;4.10;0.90;;;13.60;53.40;;;;;;4862154;29;20041;-77
2021/03/18 01:45:32;;;;;;;6.65;0.93;;;13.60;53.50;;;;;;4862366;29;20038;-75
2021/03/18 01:47:58;;;;;;;3.58;0.70;;;13.60;53.50;;;;;;4864472;29;20061;-77
2021/03/18 01:50:27;;;;;;;4.55;1.17;;;13.60;53.50;;;;;;4862552;29;20037;-77
2021/03/18 01:52:57;;;;;;;6.22;0.98;;;13.60;53.40;;;;;;4863331;29;20069;-78
2021/03/18 01:55:31;;;;;;;1.50;0.63;;;13.60;53.50;;;;;;4862247;29;20053;-76
2021/03/18 01:57:57;;;;;;;6.00;1.00;;;13.60;53.50;;;;;;4862721;29;20072;-77
2021/03/18 02:00:25;;;;;;;3.15;1.00;;;13.50;53.50;;;;;;4883425;29;20036;-76
2021/03/18 02:02:51;;;;;;;3.20;1.02;;;13.60;53.60;;;;;;4883767;29;20041;-77
2021/03/18 02:05:17;;;;;;;5.70;1.23;;;13.60;53.60;;;;;;4884578;29;20044;-76
2021/03/18 02:07:43;;;;;;;4.00;1.02;;;13.60;53.70;;;;;;4880615;29;20100;-77
2021/03/18 02:10:10;;;;;;;4.20;0.95;;;13.50;53.70;;;;;;4881921;29;20037;-76
2021/03/18 02:12:36;;;;;;;5.10;0.85;;;13.50;53.80;;;;;;4884257;29;20045;-75
2021/03/18 02:15:05;;;;;;;2.97;0.80;;;13.50;53.80;;;;;;4871405;29;20345;-77
2021/03/18 02:18:12;;;;;;;3.92;1.13;;;13.50;53.80;;;;;;4865553;29;20120;-75
2021/03/18 02:21:00;;;;;;;3.15;0.77;;;13.50;53.80;;;;;;4865030;29;20099;-78
2021/03/18 02:24:03;;;;;;;4.15;0.93;;;13.50;53.90;;;;;;4884352;29;20036;-76
2021/03/18 02:26:48;;;;;;;2.75;0.75;;;13.50;53.90;;;;;;4883888;29;20148;-76
2021/03/18 02:29:44;;;;;;;4.10;1.23;;;13.50;54.10;;;;;;4880045;29;20045;-75
2021/03/18 02:32:39;;;;;;;5.97;1.10;;;13.50;54.00;;;;;;4865352;29;20041;-79
2021/03/18 02:35:25;;;;;;;3.97;0.90;;;13.40;53.80;;;;;;4855110;29;20430;-76
2021/03/18 02:38:05;;;;;;;5.30;1.00;;;13.40;54.00;;;;;;4865156;29;20101;-76
2021/03/18 02:40:34;;;;;;;4.82;0.90;;;13.40;54.20;;;;;;4864407;29;20045;-76
2021/03/18 02:43:06;;;;;;;5.72;1.50;;;13.40;54.40;;;;;;4864864;29;20054;-77
2021/03/18 02:45:40;;;;;;;2.67;0.90;;;13.40;54.40;;;;;;4877324;29;20059;-75
2021/03/18 02:48:10;;;;;;;3.45;0.85;;;13.40;54.50;;;;;;4879879;29;20056;-77
2021/03/18 02:50:37;;;;;;;3.40;0.80;;;13.40;54.60;;;;;;4864930;29;20045;-77
2021/03/18 02:53:05;;;;;;;3.40;0.73;;;13.40;54.60;;;;;;4864495;29;20042;-77
2021/03/18 02:55:33;;;;;;;4.18;0.88;;;13.40;54.60;;;;;;4865573;29;20047;-77
2021/03/18 02:58:02;;;;;;;3.35;0.93;;;13.30;54.50;;;;;;4865523;29;20074;-76
2021/03/18 03:00:28;;;;;;;5.38;1.40;;;13.40;54.60;;;;;;4864627;29;20101;-76
2021/03/18 03:02:54;;;;;;;6.70;1.35;;;13.40;54.70;;;;;;4865329;29;20393;-76
2021/03/18 03:05:23;;;;;;;5.00;1.17;;;13.40;54.60;;;;;;4864579;29;20045;-76
2021/03/18 03:07:50;;;;;;;4.30;1.33;;;13.40;54.60;;;;;;4880369;29;20092;-77
2021/03/18 03:10:20;;;;;;;4.55;1.05;;;13.40;54.50;;;;;;4864334;29;20049;-74
2021/03/18 03:12:48;;;;;;;5.20;1.27;;;13.40;54.40;;;;;;4864085;29;20054;-76
2021/03/18 03:15:15;;;;;;;4.60;1.42;;;13.40;54.30;;;;;;4865384;29;20072;-76
2021/03/18 03:17:42;;;;;;;4.75;1.15;;;13.40;54.30;;;;;;4879526;29;20129;-76
2021/03/18 03:20:10;;;;;;;6.50;1.55;;;13.30;54.30;;;;;;4864710;29;20131;-77
2021/03/18 03:22:37;;;;;;;5.90;1.17;;;13.30;54.30;;;;;;4864780;29;20057;-74
2021/03/18 03:25:09;;;;;;;5.45;1.02;;;13.30;54.40;;;;;;4863923;29;20041;-75
2021/03/18 03:27:36;;;;;;;9.27;1.52;;;13.30;54.50;;;;;;4865528;29;20296;-78
2021/03/18 03:30:06;;;;;;;6.38;1.20;;;13.30;54.60;;;;;;4880847;29;20120;-77
2021/03/18 03:32:32;;;;;;;5.80;1.55;;;13.30;54.60;;;;;;4882805;29;20123;-76
2021/03/18 03:35:00;;;;;;;10.65;1.85;;;13.30;54.70;;;;;;4882640;29;20096;-76
2021/03/18 03:37:26;;;;;;;5.78;1.52;;;13.30;54.80;;;;;;4880231;29;20061;-75
2021/03/18 03:39:51;;;;;;;6.60;1.60;;;13.30;54.90;;;;;;4866738;29;20085;-77
2021/03/18 03:42:18;;;;;;;7.88;1.27;;;13.30;55.00;;;;;;4864384;29;20045;-77
2021/03/18 03:44:44;;;;;;;8.02;1.80;;;13.30;55.10;;;;;;4863995;29;20053;-79
2021/03/18 03:47:10;;;;;;;8.02;1.52;;;13.30;55.10;;;;;;4874800;29;20345;-76
2021/03/18 03:49:37;;;;;;;8.23;1.75;;;13.30;55.10;;;;;;4868393;29;20407;-75
2021/03/18 03:52:26;;;;;;;8.88;2.03;;;13.30;55.10;;;;;;4863470;29;20434;-76
2021/03/18 03:55:11;;;;;;;7.75;1.90;;;13.30;55.40;;;;;;4869272;29;20121;-76
2021/03/18 03:57:44;;;;;;;;;;;13.30;55.30;;;;;;4881704;29;20204;-75
2021/03/18 04:00:11;;;;;;;6.80;1.60;;;13.30;55.30;;;;;;4864881;29;20005;-77
2021/03/18 04:02:38;;;;;;;7.93;1.85;;;13.30;55.40;;;;;;4877302;29;20044;-75
2021/03/18 04:05:06;;;;;;;8.38;1.83;;;13.30;55.50;;;;;;4882738;29;20059;-77
2021/03/18 04:07:37;;;;;;;10.40;1.92;;;13.30;55.50;;;;;;4880130;29;20159;-76
2021/03/18 04:10:04;;;;;;;7.82;1.75;;;13.30;55.40;;;;;;4865615;29;20353;-77
2021/03/18 04:12:43;;;;;;;8.88;1.83;;;13.30;55.50;;;;;;4874026;29;20129;-75
2021/03/18 04:15:15;;;;;;;7.55;1.60;;;13.30;55.40;;;;;;4881336;29;20360;-75
2021/03/18 04:17:45;;;;;;;6.95;2.03;;;13.30;55.50;;;;;;4882260;29;20045;-79
2021/03/18 04:20:13;;;;;;;8.88;2.03;;;13.30;55.50;;;;;;4864569;29;20049;-77
2021/03/18 04:22:42;;;;;;;10.43;2.25;;;13.30;55.40;;;;;;4874472;29;20565;-76
2021/03/18 04:25:10;;;;;;;11.80;2.78;;;13.30;55.50;;;;;;4882097;29;20053;-76
2021/03/18 04:27:36;;;;;;;7.50;1.88;;;13.30;55.50;;;;;;4881699;29;20069;-76
2021/03/18 04:30:05;;;;;;;8.32;1.90;;;13.30;55.50;;;;;;4880947;29;20052;-77
2021/03/18 04:32:31;;;;;;;7.97;1.75;;;13.30;55.60;;;;;;4870542;29;20046;-75
2021/03/18 04:34:58;;;;;;;11.63;2.05;;;13.30;55.60;;;;;;4872627;29;20203;-76
2021/03/18 04:37:25;;;;;;;7.60;1.88;;;13.30;55.40;;;;;;4882210;29;20049;-77
2021/03/18 04:39:52;;;;;;;9.32;2.08;;;13.30;55.40;;;;;;4865270;29;20065;-77
2021/03/18 04:42:19;;;;;;;9.55;2.15;;;13.30;55.60;;;;;;4867264;29;20423;-76
2021/03/18 04:44:46;;;;;;;9.98;2.22;;;13.30;55.80;;;;;;4881284;29;20060;-78
2021/03/18 04:47:17;;;;;;;10.95;3.10;;;13.30;55.80;;;;;;4876060;29;20432;-76
2021/03/18 04:49:45;;;;;;;10.15;2.75;;;13.30;55.90;;;;;;4862816;29;20097;-76
2021/03/18 04:52:15;;;;;;;7.07;1.55;;;13.30;55.80;;;;;;4868936;29;20045;-79
2021/03/18 04:54:41;;;;;;;8.95;2.28;;;13.30;55.50;;;;;;4881524;29;20121;-78
2021/03/18 04:57:10;;;;;;;10.07;1.75;;;13.30;55.40;;;;;;4881530;29;20060;-75
2021/03/18 04:59:37;;;;;;;10.85;2.70;;;13.40;55.40;;;;;;4866232;29;20057;-75
2021/03/18 05:02:05;;;;;;;9.75;2.25;;;13.40;55.40;;;;;;4875983;29;20045;-76
2021/03/18 05:04:33;;;;;;;9.40;1.80;;;13.40;55.40;;;;;;4862976;29;20049;-74
2021/03/18 05:07:00;;;;;;;11.63;2.25;;;13.40;55.30;;;;;;4862540;29;20132;-75
2021/03/18 05:09:27;;;;;;;12.20;2.35;;;13.40;55.40;;;;;;4877025;29;20124;-76
2021/03/18 05:11:54;;;;;;;10.88;2.65;;;13.40;55.50;;;;;;4877811;29;20041;-76
2021/03/18 05:14:21;;;;;;;12.82;2.28;;;13.40;55.70;;;;;;4870036;29;20513;-75
2021/03/18 05:16:52;;;;;;;9.55;2.75;;;13.30;55.80;;;;;;4879537;29;20341;-75
2021/03/18 05:19:18;;;;;;;14.07;2.35;;;13.30;55.90;;;;;;4866049;29;20068;-77
2021/03/18 05:21:49;;;;;;;9.63;2.42;;;13.30;56.10;;;;;;4876591;29;20048;-77
2021/03/18 05:24:15;;;;;;;12.35;2.78;;;13.30;56.00;;;;;;4862809;29;20049;-78
2021/03/18 05:26:42;;;;;;;9.10;2.25;;;13.30;55.90;;;;;;4862506;29;20053;-76
2021/03/18 05:29:11;;;;;;;9.45;1.92;;;13.30;55.90;;;;;;4866574;29;20060;-76
2021/03/18 05:31:37;;;;;;;11.85;2.42;;;13.30;56.20;;;;;;4865722;29;20080;-73
2021/03/18 05:34:04;;;;;;;12.88;2.17;;;13.30;56.50;;;;;;4867312;29;20049;-75
2021/03/18 05:36:29;;;;;;;13.35;2.30;;;13.30;56.50;;;;;;4866090;29;20077;-77
2021/03/18 05:38:59;;;;;;;13.10;2.75;;;13.30;56.70;;;;;;4865977;29;20438;-74
2021/03/18 05:41:26;;;;;;;14.70;3.05;;;13.30;57.30;;;;;;4879786;29;20045;-75
2021/03/18 05:43:53;;;;;;;14.18;3.47;;;13.40;57.90;;;;;;4867192;29;20029;-76
2021/03/18 05:46:18;;;;;;;10.38;2.15;;;13.50;59.10;;;;;;4872524;29;20069;-73
2021/03/18 05:48:45;;;;;;;12.48;2.13;;;13.50;58.80;;;;;;4879892;29;20112;-82
2021/03/18 05:51:20;;;;;;;12.32;2.60;;;13.70;58.00;;;;;;4883410;29;20052;-76
2021/03/18 05:53:47;;;;;;;11.45;2.60;;;13.80;57.50;;;;;;4884224;29;20365;-73
2021/03/18 05:56:20;;;;;;;7.68;1.58;;;14.00;57.30;;;;;;4883997;29;20120;-79
2021/03/18 05:58:48;;;;;;;8.95;2.03;;;14.20;57.00;;;;;;4876295;29;20048;-78
2021/03/18 06:01:15;;;;;;;9.75;2.47;;;14.40;56.90;;;;;;4883807;29;20033;-82
2021/03/18 06:03:41;;;;;;;10.10;2.50;;;14.60;57.70;;;;;;4883861;29;20150;-74
2021/03/18 06:06:11;;;;;;;13.68;2.42;;;14.70;57.50;;;;;;4882195;29;20045;-74
2021/03/18 06:08:41;;;;;;;13.02;1.67;;;14.90;57.80;;;;;;4882328;29;20049;-74
2021/03/18 06:11:09;;;;;;;12.90;2.65;;;15.10;58.10;;;;;;4882162;29;20051;-75
2021/03/18 06:13:36;;;;;;;15.20;2.95;;;15.30;58.70;;;;;;4884139;29;20349;-74
2021/03/18 06:16:04;;;;;;;13.95;2.63;;;15.40;58.50;;;;;;4883835;29;20059;-77
2021/03/18 06:18:32;;;;;;;12.05;3.08;;;15.50;58.60;;;;;;4869538;29;20049;-76
2021/03/18 06:20:58;;;;;;;9.10;1.55;;;15.70;58.80;;;;;;4884114;29;20049;-77
2021/03/18 06:23:24;;;;;;;11.02;2.13;;;15.80;58.80;;;;;;4883821;29;20448;-78
2021/03/18 06:25:50;;;;;;;7.85;2.28;;;15.90;58.90;;;;;;4883409;29;20045;-77
2021/03/18 06:28:23;;;;;;;11.15;2.78;;;15.90;58.70;;;;;;4868501;29;20041;-77
2021/03/18 06:31:15;;;;;;;8.85;1.52;;;16.00;58.70;;;;;;4866123;29;20045;-77
2021/03/18 06:33:44;;;;;;;10.45;2.33;;;16.10;58.80;;;;;;4865249;29;20460;-76
2021/03/18 06:36:30;;;;;;;8.00;2.08;;;16.20;58.60;;;;;;4865050;29;20358;-76
2021/03/18 06:39:17;;;;;;;8.48;2.28;;;16.20;58.80;;;;;;4864586;29;20069;-75
2021/03/18 06:41:55;;;;;;;6.80;1.90;;;16.30;58.60;;;;;;4865593;29;20113;-73
2021/03/18 06:44:23;;;;;;;11.45;2.13;;;16.30;58.60;;;;;;4865054;29;20049;-75
2021/03/18 06:46:50;;;;;;;10.60;1.92;;;16.30;58.40;;;;;;4876826;29;20066;-77
2021/03/18 06:49:19;;;;;;;19.42;2.67;;;16.30;58.40;;;;;;4863713;29;20041;-77
2021/03/18 06:52:01;;;;;;;11.55;2.55;;;16.30;58.50;;;;;;4864517;29;20101;-76
2021/03/18 06:54:27;;;;;;;17.73;2.63;;;16.40;58.70;;;;;;4864297;29;20116;-78
2021/03/18 06:56:54;;;;;;;9.52;2.03;;;16.50;58.40;;;;;;4865534;29;20041;-76
2021/03/18 06:59:25;;;;;;;12.52;2.38;;;16.60;58.40;;;;;;4865154;29;20566;-76
2021/03/18 07:02:01;;;;;;;8.80;2.30;;;16.70;58.60;;;;;;4864293;29;20044;-76
2021/03/18 07:04:33;;;;;;;11.85;2.30;;;16.80;58.40;;;;;;4871711;29;20037;-76
2021/03/18 07:07:05;;;;;;;15.68;2.83;;;16.90;58.30;;;;;;4880851;29;20068;-75
2021/03/18 07:09:38;;;;;;;10.05;2.38;;;16.90;57.80;;;;;;4882873;29;20044;-75
2021/03/18 07:12:09;;;;;;;11.65;2.33;;;16.90;57.60;;;;;;4883129;29;20036;-75
2021/03/18 07:14:43;;;;;;;15.13;3.47;;;16.90;57.70;;;;;;4880462;29;20169;-76
2021/03/18 07:17:31;;;;;;;12.45;2.70;;;16.90;57.60;;;;;;4865375;29;20050;-75
2021/03/18 07:20:22;;;;;;;11.70;3.03;;;16.80;57.70;;;;;;4864542;29;20057;-75
2021/03/18 07:22:51;;;;;;;15.20;2.90;;;16.70;57.80;;;;;;4863848;29;20041;-77
2021/03/18 07:25:19;;;;;;;10.23;2.60;;;16.60;57.60;;;;;;4863617;29;20207;-76
2021/03/18 07:27:48;;;;;;;16.58;3.25;;;16.50;57.50;;;;;;4863317;29;20046;-74
2021/03/18 07:30:29;;;;;;;10.45;2.45;;;16.50;57.50;;;;;;4863885;29;20052;-76
2021/03/18 07:32:57;;;;;;;9.90;2.53;;;16.40;57.50;;;;;;4863668;29;20037;-76
2021/03/18 07:35:24;;;;;;;15.93;2.53;;;16.40;57.60;;;;;;4863797;29;20053;-75
2021/03/18 07:37:51;;;;;;;11.48;2.28;;;16.30;57.60;;;;;;4863926;29;20072;-74
2021/03/18 07:40:17;;;;;;;8.77;2.85;;;16.30;57.60;;;;;;4863211;29;20053;-74
2021/03/18 07:42:44;;;;;;;10.98;2.38;;;16.30;57.60;;;;;;4863607;29;20314;-78
2021/03/18 07:45:10;;;;;;;13.68;2.53;;;16.20;57.60;;;;;;4863717;29;20049;-73
2021/03/18 07:47:37;;;;;;;18.52;2.85;;;16.20;57.70;;;;;;4876356;29;20468;-74
2021/03/18 07:50:09;;;;;;;17.10;4.30;;;16.10;57.80;;;;;;4880227;29;20434;-74
2021/03/18 07:52:40;;;;;;;21.52;5.32;;;16.00;55.90;;;;;;4882309;29;20045;-75
2021/03/18 07:55:09;;;;;;;19.05;4.28;;;15.80;54.70;;;;;;4882003;29;20475;-75
2021/03/18 07:57:43;;;;;;;21.63;4.80;;;15.60;55.10;;;;;;4881720;29;20056;-74
2021/03/18 08:00:15;;;;;;;22.35;5.78;;;15.40;56.20;;;;;;4882080;29;20069;-74
2021/03/18 08:02:44;;;;;;;20.88;4.32;;;15.30;56.10;;;;;;4882052;29;20041;-80
2021/03/18 08:05:10;;;;;;;28.33;5.10;;;15.30;56.20;;;;;;4882075;29;20055;-75
2021/03/18 08:07:48;;;;;;;27.08;5.55;;;15.20;56.30;;;;;;4881842;29;20080;-75
2021/03/18 08:10:23;;;;;;;19.75;4.40;;;15.20;56.10;;;;;;4882330;29;20048;-75
2021/03/18 08:12:59;;;;;;;15.77;4.30;;;15.20;55.80;;;;;;4882033;29;20045;-75
2021/03/18 08:15:34;;;;;;;22.13;4.80;;;15.10;55.80;;;;;;4882005;29;20113;-76
2021/03/18 08:18:33;;;;;;;22.75;4.60;;;15.10;55.90;;;;;;4879817;29;20049;-76
2021/03/18 08:21:01;;;;;;;16.40;4.53;;;15.10;57.40;;;;;;4867030;29;20085;-76
2021/03/18 08:23:27;;;;;;;18.20;3.38;;;15.10;57.90;;;;;;4881361;29;20283;-74
2021/03/18 08:25:55;;;;;;;14.68;4.05;;;15.20;58.10;;;;;;4881766;29;20041;-77
2021/03/18 08:28:39;;;;;;;13.80;3.33;;;15.20;58.00;;;;;;4881629;29;20055;-75
2021/03/18 08:31:13;;;;;;;13.45;3.08;;;15.30;57.70;;;;;;4881922;29;20049;-76
2021/03/18 08:33:54;;;;;;;17.52;3.90;;;15.50;57.70;;;;;;4881193;29;20117;-77
2021/03/18 08:36:34;;;;;;;13.02;3.22;;;15.50;57.50;;;;;;4881201;29;20056;-76
2021/03/18 08:39:02;;;;;;;12.73;3.30;;;15.60;57.30;;;;;;4881321;29;20041;-77
2021/03/18 08:41:36;;;;;;;12.13;3.40;;;15.70;56.80;;;;;;4881405;29;20052;-75
2021/03/18 08:44:21;;;;;;;12.57;2.80;;;15.70;56.50;;;;;;4880866;29;20088;-75
2021/03/18 08:46:50;;;;;;;10.70;2.83;;;15.80;56.80;;;;;;4881648;29;20056;-74
2021/03/18 08:49:23;;;;;;;14.27;2.65;;;15.70;56.90;;;;;;4881509;29;20162;-76
2021/03/18 08:51:51;;;;;;;14.52;3.33;;;15.80;57.00;;;;;;4880476;29;20048;-76
2021/03/18 08:54:36;;;;;;;9.80;2.47;;;15.90;57.20;;;;;;4879600;29;20044;-75
2021/03/18 08:57:10;;;;;;;8.10;2.35;;;15.90;57.00;;;;;;4881140;29;20127;-75
2021/03/18 08:59:38;;;;;;;9.15;2.75;;;16.00;57.00;;;;;;4881226;29;20441;-78
2021/03/18 09:02:08;;;;;;;10.95;2.60;;;16.00;57.00;;;;;;4881051;29;20073;-76
2021/03/18 09:04:44;;;;;;;9.70;2.60;;;16.00;57.00;;;;;;4880978;29;20113;-74
2021/03/18 09:07:12;;;;;;;7.78;2.22;;;16.10;57.00;;;;;;4881269;29;20072;-75
2021/03/18 09:09:38;;;;;;;10.43;2.55;;;16.10;57.00;;;;;;4882779;29;20076;-76
2021/03/18 09:12:07;;;;;;;11.13;2.58;;;16.20;56.90;;;;;;4884885;29;20052;-75
2021/03/18 09:14:33;;;;;;;7.70;2.55;;;16.30;56.90;;;;;;4884835;29;20390;-75
2021/03/18 09:17:10;;;;;;;8.85;2.72;;;16.30;56.80;;;;;;4885177;29;20052;-78
2021/03/18 09:19:38;;;;;;;11.85;2.45;;;16.40;56.80;;;;;;4885119;29;20072;-74
2021/03/18 09:22:05;;;;;;;13.05;2.22;;;16.50;57.40;;;;;;4884561;29;20041;-75
2021/03/18 09:24:38;;;;;;;10.45;2.80;;;16.60;56.70;;;;;;4882267;29;20044;-75
2021/03/18 09:27:09;;;;;;;;;;;16.70;56.60;;;;;;4884610;29;20108;-76
2021/03/18 09:29:34;;;;;;;9.07;2.30;;;16.80;56.50;;;;;;4884353;29;20330;-76
2021/03/18 09:32:05;;;;;;;7.93;2.35;;;16.80;56.80;;;;;;4880645;29;20045;-75
2021/03/18 09:34:35;;;;;;;10.32;3.10;;;16.90;56.30;;;;;;4882493;29;20409;-75
2021/03/18 09:37:01;;;;;;;13.98;2.80;;;16.90;56.40;;;;;;4884372;29;20056;-75
2021/03/18 09:39:27;;;;;;;9.45;2.17;;;16.90;56.30;;;;;;4884284;29;20045;-77
2021/03/18 09:41:58;;;;;;;9.63;2.22;;;17.00;56.30;;;;;;4884423;29;20397;-74
2021/03/18 09:44:29;;;;;;;8.00;1.88;;;17.00;56.20;;;;;;4884387;29;20041;-76
2021/03/18 09:46:55;;;;;;;7.82;2.33;;;17.00;56.10;;;;;;4883744;29;20611;-76
2021/03/18 09:49:34;;;;;;;9.02;2.22;;;17.10;56.00;;;;;;4884506;29;20061;-75
2021/03/18 09:52:04;;;;;;;5.88;2.00;;;17.10;56.00;;;;;;4883877;29;20041;-77
2021/03/18 09:54:30;;;;;;;9.50;2.22;;;17.20;55.90;;;;;;4881366;29;20112;-75
2021/03/18 09:57:01;;;;;;;7.35;2.03;;;17.10;55.90;;;;;;4884632;29;20116;-79
2021/03/18 09:59:27;;;;;;;10.82;1.92;;;17.20;55.90;;;;;;4884504;29;20044;-78
2021/03/18 10:01:53;;;;;;;9.70;2.55;;;17.20;55.80;;;;;;4883941;29;20378;-78
2021/03/18 10:04:20;;;;;;;6.38;1.75;;;17.20;55.80;;;;;;4883539;29;20469;-79
2021/03/18 10:06:56;;;;;;;12.35;2.00;;;17.20;55.40;;;;;;4883995;29;20310;-77
2021/03/18 10:09:25;;;;;;;10.57;2.40;;;17.20;55.40;;;;;;4884034;29;20048;-79
2021/03/18 10:43:46;;;;;;;16.00;3.15;;;16.90;56.30;;;;;;4892754;23;20056;-77
2021/03/18 10:46:16;;;;;;;15.70;3.47;;;16.80;56.40;;;;;;4882180;29;20096;-82
2021/03/18 10:48:54;;;;;;;10.30;2.53;;;16.80;56.50;;;;;;4851449;29;20677;-82
2021/03/18 10:51:21;;;;;;;11.60;2.72;;;16.70;56.70;;;;;;4882105;29;20040;-81
2021/03/18 10:53:48;;;;;;;10.40;2.60;;;16.60;56.90;;;;;;4866312;29;20133;-80
2021/03/18 10:56:25;;;;;;;12.13;2.80;;;16.60;57.80;;;;;;4851475;29;20059;-83
2021/03/18 10:58:52;;;;;;;12.18;3.10;;;16.50;57.30;;;;;;4866470;29;20039;-79
2021/03/18 11:01:26;;;;;;;12.07;2.72;;;16.40;57.40;;;;;;4867019;29;20075;-81
2021/03/18 11:04:05;;;;;;;15.40;3.25;;;16.50;57.50;;;;;;4866575;29;20033;-80
2021/03/18 11:06:32;;;;;;;11.80;2.90;;;16.40;57.40;;;;;;4851589;29;20053;-81
2021/03/18 11:09:12;;;;;;;7.38;2.58;;;16.40;57.40;;;;;;4852054;29;20045;-82
2021/03/18 11:11:38;;;;;;;12.10;3.17;;;16.40;57.30;;;;;;4850979;29;20365;-80
2021/03/18 11:14:14;;;;;;;11.60;2.55;;;16.30;57.40;;;;;;4882664;29;20052;-81
2021/03/18 11:16:41;;;;;;;12.70;2.55;;;16.40;57.50;;;;;;4883099;29;20051;-83
2021/03/18 11:19:10;;;;;;;11.48;2.25;;;16.30;57.50;;;;;;4881665;29;20056;-82
2021/03/18 11:21:39;;;;;;;11.63;2.75;;;16.40;57.70;;;;;;4866154;29;20045;-84
2021/03/18 11:24:19;;;;;;;11.90;3.10;;;16.30;57.60;;;;;;4850565;29;20049;-84
2021/03/18 11:27:00;;;;;;;8.77;2.20;;;16.30;57.50;;;;;;4850873;29;20053;-85
2021/03/18 11:29:31;;;;;;;9.52;2.90;;;16.40;57.60;;;;;;4865954;29;20072;-84
2021/03/18 11:31:59;;;;;;;12.35;3.22;;;16.40;57.50;;;;;;4865183;29;20068;-84
2021/03/18 11:34:29;;;;;;;13.23;2.85;;;16.40;57.40;;;;;;4850687;29;20128;-87
2021/03/18 11:36:58;;;;;;;10.95;2.67;;;16.50;57.50;;;;;;4865928;29;20448;-85
2021/03/18 11:39:25;;;;;;;8.32;1.98;;;16.50;57.40;;;;;;4865744;29;20076;-85
2021/03/18 11:41:53;;;;;;;7.63;1.95;;;16.60;57.30;;;;;;4880727;29;20087;-84
2021/03/18 11:44:20;;;;;;;8.98;2.20;;;16.60;57.30;;;;;;4865712;29;20132;-84
2021/03/18 11:46:46;;;;;;;7.53;2.13;;;16.70;57.20;;;;;;4865772;29;20405;-84
2021/03/18 11:49:15;;;;;;;8.43;2.05;;;16.80;57.10;;;;;;4850695;29;20053;-85
2021/03/18 11:51:42;;;;;;;6.70;1.92;;;16.90;57.00;;;;;;4865662;29;20044;-85
2021/03/18 11:54:09;;;;;;;7.35;1.80;;;16.90;56.80;;;;;;4849977;29;20386;-84
2021/03/18 11:56:36;;;;;;;7.20;1.75;;;17.00;56.70;;;;;;4846045;29;20100;-84
2021/03/18 11:59:02;;;;;;;9.43;2.10;;;17.00;56.60;;;;;;4861287;29;20169;-83
2021/03/18 12:01:27;;;;;;;6.38;2.20;;;17.00;56.60;;;;;;4861271;29;20053;-83
2021/03/18 12:03:53;;;;;;;7.80;1.80;;;17.10;56.60;;;;;;4845789;29;20049;-84
2021/03/18 12:06:20;;;;;;;6.97;1.45;;;17.10;56.60;;;;;;4845953;29;20066;-84
2021/03/18 12:08:46;;;;;;;5.30;1.50;;;17.10;56.60;;;;;;4861107;29;20094;-84
2021/03/18 12:11:12;;;;;;;7.20;1.95;;;17.10;56.50;;;;;;4845858;29;20061;-83
2021/03/18 12:13:38;;;;;;;5.43;1.20;;;17.20;56.60;;;;;;4861167;29;20049;-83
2021/03/18 12:16:05;;;;;;;4.63;1.30;;;17.10;56.50;;;;;;4846067;29;20057;-83
2021/03/18 12:18:31;;;;;;;5.72;1.15;;;17.10;56.50;;;;;;4845864;29;20057;-82
2021/03/18 12:20:58;;;;;;;8.25;2.00;;;17.10;56.40;;;;;;4860520;29;20422;-82
2021/03/18 12:23:24;;;;;;;4.82;1.27;;;17.10;56.80;;;;;;4845717;29;20049;-84
2021/03/18 12:26:04;;;;;;;5.75;1.35;;;17.10;56.90;;;;;;4845541;29;20064;-80
2021/03/18 12:28:32;;;;;;;6.47;1.23;;;17.10;56.90;;;;;;4860396;29;20117;-86
2021/03/18 12:30:58;;;;;;;7.50;1.25;;;17.10;56.90;;;;;;4845597;29;20057;-86
2021/03/18 12:33:24;;;;;;;5.40;1.10;;;17.00;56.90;;;;;;4866100;29;20185;-85
2021/03/18 12:35:51;;;;;;;8.35;1.52;;;17.00;56.90;;;;;;4850222;29;20457;-84
2021/03/18 12:38:21;;;;;;;5.28;1.38;;;17.00;56.90;;;;;;4865113;29;20041;-85
2021/03/18 12:40:51;;;;;;;3.80;0.90;;;17.10;56.80;;;;;;4849944;29;20140;-85
2021/03/18 12:43:17;;;;;;;10.13;1.45;;;17.10;56.70;;;;;;4863954;29;20049;-83
2021/03/18 12:45:46;;;;;;;5.05;1.38;;;17.00;56.70;;;;;;4849729;29;20105;-84
2021/03/18 12:48:12;;;;;;;5.97;1.17;;;17.10;56.90;;;;;;4865096;29;20037;-84
2021/03/18 12:50:39;;;;;;;3.22;0.70;;;17.10;56.90;;;;;;4849756;29;20083;-85
2021/03/18 12:53:05;;;;;;;6.28;1.40;;;17.10;56.70;;;;;;4881296;29;20045;-84
2021/03/18 12:55:31;;;;;;;4.97;1.00;;;17.10;56.70;;;;;;4849656;29;20120;-82
2021/03/18 12:57:58;;;;;;;6.60;1.00;;;17.10;56.70;;;;;;4864745;29;20068;-87
2021/03/18 13:00:28;;;;;;;2.50;1.00;;;17.10;56.70;;;;;;4849386;29;20072;-84
2021/03/18 13:02:54;;;;;;;4.40;0.80;;;17.10;56.60;;;;;;4850010;29;20116;-84
2021/03/18 13:05:24;;;;;;;4.93;0.98;;;17.10;56.60;;;;;;4849884;29;20135;-83
2021/03/18 13:07:50;;;;;;;3.47;1.02;;;17.10;56.60;;;;;;4864744;29;20068;-84
2021/03/18 13:10:20;;;;;;;3.80;0.82;;;17.10;56.60;;;;;;4864612;29;20509;-83
2021/03/18 13:12:47;;;;;;;4.07;0.93;;;17.10;56.70;;;;;;4849753;29;20123;-85
2021/03/18 13:15:13;;;;;;;5.82;1.35;;;17.10;56.70;;;;;;4864708;29;20049;-83
2021/03/18 13:17:40;;;;;;;5.38;1.35;;;17.10;56.70;;;;;;4849540;29;20084;-85
2021/03/18 13:20:13;;;;;;;5.38;0.93;;;17.10;56.80;;;;;;4864861;29;20144;-84
2021/03/18 13:22:39;;;;;;;5.20;1.50;;;17.10;56.80;;;;;;4849881;29;20045;-84
2021/03/18 13:25:07;;;;;;;5.18;1.08;;;17.10;56.70;;;;;;4864518;29;20345;-85
2021/03/18 13:27:33;;;;;;;4.32;0.85;;;17.10;56.60;;;;;;4849003;29;20101;-84
2021/03/18 13:30:01;;;;;;;4.70;0.90;;;17.10;56.70;;;;;;4865123;29;20045;-85